sensor_id;sensor_type;location;lat;lon;timestamp;pressure;altitude;pressure_sealevel;temperature
8533;BMP280;4304;53.876;10.662;2023-07-13T00:01:39;101192.66;;;16.69
8533;BMP280;4304;53.876;10.662;2023-07-13T00:04:04;101190.28;;;16.66
8533;BMP280;4304;53.876;10.662;2023-07-13T00:06:29;101190.03;;;16.69
8533;BMP280;4304;53.876;10.662;2023-07-13T00:08:58;101186.25;;;16.62
8533;BMP280;4304;53.876;10.662;2023-07-13T00:11:23;101186.69;;;16.67
8533;BMP280;4304;53.876;10.662;2023-07-13T00:13:49;101190.94;;;16.59
8533;BMP280;4304;53.876;10.662;2023-07-13T00:16:14;101189.41;;;16.56
8533;BMP280;4304;53.876;10.662;2023-07-13T00:18:39;101190.66;;;16.62
8533;BMP280;4304;53.876;10.662;2023-07-13T00:21:05;101191.31;;;16.54
8533;BMP280;4304;53.876;10.662;2023-07-13T00:23:32;101182.75;;;16.52
8533;BMP280;4304;53.876;10.662;2023-07-13T00:26:00;101185.22;;;16.54
8533;BMP280;4304;53.876;10.662;2023-07-13T00:28:25;101184.66;;;16.50
8533;BMP280;4304;53.876;10.662;2023-07-13T00:30:50;101182.28;;;16.47
8533;BMP280;4304;53.876;10.662;2023-07-13T00:33:16;101189.47;;;16.45
8533;BMP280;4304;53.876;10.662;2023-07-13T00:35:41;101177.31;;;16.44
8533;BMP280;4304;53.876;10.662;2023-07-13T00:38:09;101180.97;;;16.32
8533;BMP280;4304;53.876;10.662;2023-07-13T00:40:34;101189.50;;;16.25
8533;BMP280;4304;53.876;10.662;2023-07-13T00:43:00;101179.38;;;16.21
8533;BMP280;4304;53.876;10.662;2023-07-13T00:47:50;101182.22;;;16.18
8533;BMP280;4304;53.876;10.662;2023-07-13T00:50:16;101186.31;;;16.11
8533;BMP280;4304;53.876;10.662;2023-07-13T00:52:45;101182.78;;;16.01
8533;BMP280;4304;53.876;10.662;2023-07-13T00:55:12;101179.34;;;16.00
8533;BMP280;4304;53.876;10.662;2023-07-13T00:57:38;101182.09;;;15.99
8533;BMP280;4304;53.876;10.662;2023-07-13T01:00:05;101178.44;;;15.90
8533;BMP280;4304;53.876;10.662;2023-07-13T01:02:34;101176.31;;;15.84
8533;BMP280;4304;53.876;10.662;2023-07-13T01:05:00;101175.84;;;15.80
8533;BMP280;4304;53.876;10.662;2023-07-13T01:07:27;101178.00;;;15.75
8533;BMP280;4304;53.876;10.662;2023-07-13T01:09:52;101180.88;;;15.72
8533;BMP280;4304;53.876;10.662;2023-07-13T01:12:18;101187.34;;;15.68
8533;BMP280;4304;53.876;10.662;2023-07-13T01:14:43;101184.25;;;15.63
8533;BMP280;4304;53.876;10.662;2023-07-13T01:17:10;101184.16;;;15.53
8533;BMP280;4304;53.876;10.662;2023-07-13T01:19:39;101191.44;;;15.50
8533;BMP280;4304;53.876;10.662;2023-07-13T01:22:07;101192.16;;;15.41
8533;BMP280;4304;53.876;10.662;2023-07-13T01:24:34;101185.38;;;15.38
8533;BMP280;4304;53.876;10.662;2023-07-13T01:26:59;101192.78;;;15.34
8533;BMP280;4304;53.876;10.662;2023-07-13T01:29:25;101193.00;;;15.31
8533;BMP280;4304;53.876;10.662;2023-07-13T01:31:50;101185.50;;;15.26
8533;BMP280;4304;53.876;10.662;2023-07-13T01:34:15;101188.53;;;15.22
8533;BMP280;4304;53.876;10.662;2023-07-13T01:36:42;101189.00;;;15.27
8533;BMP280;4304;53.876;10.662;2023-07-13T01:39:07;101188.00;;;15.28
8533;BMP280;4304;53.876;10.662;2023-07-13T01:41:32;101191.84;;;15.24
8533;BMP280;4304;53.876;10.662;2023-07-13T01:43:58;101192.06;;;15.21
8533;BMP280;4304;53.876;10.662;2023-07-13T01:46:23;101189.56;;;15.19
8533;BMP280;4304;53.876;10.662;2023-07-13T01:48:48;101200.03;;;15.19
8533;BMP280;4304;53.876;10.662;2023-07-13T01:51:13;101195.78;;;15.18
8533;BMP280;4304;53.876;10.662;2023-07-13T01:53:39;101194.44;;;15.13
8533;BMP280;4304;53.876;10.662;2023-07-13T01:56:04;101193.72;;;15.11
8533;BMP280;4304;53.876;10.662;2023-07-13T01:58:30;101197.06;;;15.13
8533;BMP280;4304;53.876;10.662;2023-07-13T02:00:55;101186.38;;;15.16
8533;BMP280;4304;53.876;10.662;2023-07-13T02:03:20;101193.28;;;15.17
8533;BMP280;4304;53.876;10.662;2023-07-13T02:05:46;101196.22;;;15.12
8533;BMP280;4304;53.876;10.662;2023-07-13T02:08:11;101187.91;;;15.07
8533;BMP280;4304;53.876;10.662;2023-07-13T02:10:37;101192.16;;;15.08
8533;BMP280;4304;53.876;10.662;2023-07-13T02:13:05;101196.69;;;15.06
8533;BMP280;4304;53.876;10.662;2023-07-13T02:15:31;101202.91;;;15.05
8533;BMP280;4304;53.876;10.662;2023-07-13T02:17:56;101202.16;;;15.03
8533;BMP280;4304;53.876;10.662;2023-07-13T02:20:22;101192.53;;;15.04
8533;BMP280;4304;53.876;10.662;2023-07-13T02:22:47;101187.53;;;15.01
8533;BMP280;4304;53.876;10.662;2023-07-13T02:25:12;101181.59;;;14.99
8533;BMP280;4304;53.876;10.662;2023-07-13T02:27:39;101191.97;;;15.00
8533;BMP280;4304;53.876;10.662;2023-07-13T02:30:05;101195.75;;;14.96
8533;BMP280;4304;53.876;10.662;2023-07-13T02:32:30;101192.31;;;14.96
8533;BMP280;4304;53.876;10.662;2023-07-13T02:34:55;101191.59;;;14.94
8533;BMP280;4304;53.876;10.662;2023-07-13T02:37:21;101196.84;;;14.94
8533;BMP280;4304;53.876;10.662;2023-07-13T02:39:46;101194.09;;;14.95
8533;BMP280;4304;53.876;10.662;2023-07-13T02:42:13;101185.03;;;14.89
8533;BMP280;4304;53.876;10.662;2023-07-13T02:44:38;101183.28;;;14.89
8533;BMP280;4304;53.876;10.662;2023-07-13T02:47:03;101186.94;;;14.87
8533;BMP280;4304;53.876;10.662;2023-07-13T02:49:29;101178.84;;;14.79
8533;BMP280;4304;53.876;10.662;2023-07-13T02:51:54;101183.16;;;14.80
8533;BMP280;4304;53.876;10.662;2023-07-13T02:54:19;101181.00;;;14.85
8533;BMP280;4304;53.876;10.662;2023-07-13T02:56:45;101189.09;;;14.82
8533;BMP280;4304;53.876;10.662;2023-07-13T02:59:10;101187.66;;;14.78
8533;BMP280;4304;53.876;10.662;2023-07-13T03:01:36;101196.22;;;14.80
8533;BMP280;4304;53.876;10.662;2023-07-13T03:04:02;101194.94;;;14.74
8533;BMP280;4304;53.876;10.662;2023-07-13T03:06:27;101195.88;;;14.73
8533;BMP280;4304;53.876;10.662;2023-07-13T03:08:56;101193.47;;;14.70
8533;BMP280;4304;53.876;10.662;2023-07-13T03:11:21;101200.03;;;14.76
8533;BMP280;4304;53.876;10.662;2023-07-13T03:13:47;101201.09;;;14.73
8533;BMP280;4304;53.876;10.662;2023-07-13T03:16:14;101197.66;;;14.73
8533;BMP280;4304;53.876;10.662;2023-07-13T03:18:41;101201.34;;;14.70
8533;BMP280;4304;53.876;10.662;2023-07-13T03:21:06;101194.34;;;14.71
8533;BMP280;4304;53.876;10.662;2023-07-13T03:23:32;101195.75;;;14.75
8533;BMP280;4304;53.876;10.662;2023-07-13T03:26:06;101196.56;;;14.75
8533;BMP280;4304;53.876;10.662;2023-07-13T03:28:32;101194.19;;;14.72
8533;BMP280;4304;53.876;10.662;2023-07-13T03:31:06;101195.41;;;14.79
8533;BMP280;4304;53.876;10.662;2023-07-13T03:33:32;101200.38;;;14.82
8533;BMP280;4304;53.876;10.662;2023-07-13T03:35:57;101194.22;;;14.83
8533;BMP280;4304;53.876;10.662;2023-07-13T03:38:23;101208.97;;;14.84
8533;BMP280;4304;53.876;10.662;2023-07-13T03:40:48;101197.06;;;14.91
8533;BMP280;4304;53.876;10.662;2023-07-13T03:43:14;101197.53;;;14.96
8533;BMP280;4304;53.876;10.662;2023-07-13T03:45:39;101203.25;;;15.01
8533;BMP280;4304;53.876;10.662;2023-07-13T03:48:05;101194.47;;;15.02
8533;BMP280;4304;53.876;10.662;2023-07-13T03:50:31;101187.44;;;15.02
8533;BMP280;4304;53.876;10.662;2023-07-13T03:52:57;101185.44;;;15.17
8533;BMP280;4304;53.876;10.662;2023-07-13T03:55:23;101199.34;;;15.17
8533;BMP280;4304;53.876;10.662;2023-07-13T04:00:39;101184.00;;;15.24
8533;BMP280;4304;53.876;10.662;2023-07-13T04:03:04;101200.63;;;15.23
8533;BMP280;4304;53.876;10.662;2023-07-13T04:05:30;101201.50;;;15.23
8533;BMP280;4304;53.876;10.662;2023-07-13T04:07:55;101196.97;;;15.25
8533;BMP280;4304;53.876;10.662;2023-07-13T04:10:21;101209.31;;;15.34
8533;BMP280;4304;53.876;10.662;2023-07-13T04:12:46;101205.38;;;15.39
8533;BMP280;4304;53.876;10.662;2023-07-13T04:15:12;101203.81;;;15.48
8533;BMP280;4304;53.876;10.662;2023-07-13T04:17:37;101206.97;;;15.62
8533;BMP280;4304;53.876;10.662;2023-07-13T04:20:03;101212.56;;;15.69
8533;BMP280;4304;53.876;10.662;2023-07-13T04:22:28;101208.88;;;15.71
8533;BMP280;4304;53.876;10.662;2023-07-13T04:24:54;101197.16;;;15.86
8533;BMP280;4304;53.876;10.662;2023-07-13T04:27:19;101195.81;;;15.91
8533;BMP280;4304;53.876;10.662;2023-07-13T04:29:44;101194.09;;;16.01
8533;BMP280;4304;53.876;10.662;2023-07-13T04:32:10;101200.88;;;16.04
8533;BMP280;4304;53.876;10.662;2023-07-13T04:34:35;101204.53;;;16.12
8533;BMP280;4304;53.876;10.662;2023-07-13T04:37:00;101208.44;;;16.18
8533;BMP280;4304;53.876;10.662;2023-07-13T04:39:26;101196.63;;;16.23
8533;BMP280;4304;53.876;10.662;2023-07-13T04:41:51;101195.19;;;16.30
8533;BMP280;4304;53.876;10.662;2023-07-13T04:44:17;101192.59;;;16.39
8533;BMP280;4304;53.876;10.662;2023-07-13T04:46:42;101196.84;;;16.51
8533;BMP280;4304;53.876;10.662;2023-07-13T04:49:08;101192.59;;;16.60
8533;BMP280;4304;53.876;10.662;2023-07-13T04:51:33;101195.28;;;16.69
8533;BMP280;4304;53.876;10.662;2023-07-13T04:53:58;101193.66;;;17.07
8533;BMP280;4304;53.876;10.662;2023-07-13T04:56:24;101195.84;;;17.41
8533;BMP280;4304;53.876;10.662;2023-07-13T04:58:49;101193.97;;;18.09
8533;BMP280;4304;53.876;10.662;2023-07-13T05:01:15;101186.19;;;18.54
8533;BMP280;4304;53.876;10.662;2023-07-13T05:03:40;101191.31;;;18.92
8533;BMP280;4304;53.876;10.662;2023-07-13T05:06:07;101194.72;;;19.11
8533;BMP280;4304;53.876;10.662;2023-07-13T05:08:35;101190.56;;;19.09
8533;BMP280;4304;53.876;10.662;2023-07-13T05:11:02;101203.69;;;19.45
8533;BMP280;4304;53.876;10.662;2023-07-13T05:13:28;101199.53;;;19.42
8533;BMP280;4304;53.876;10.662;2023-07-13T05:16:02;101191.84;;;19.75
8533;BMP280;4304;53.876;10.662;2023-07-13T05:18:28;101187.69;;;19.73
8533;BMP280;4304;53.876;10.662;2023-07-13T05:21:01;101196.13;;;19.76
8533;BMP280;4304;53.876;10.662;2023-07-13T05:23:26;101200.22;;;20.23
8533;BMP280;4304;53.876;10.662;2023-07-13T05:25:52;101198.63;;;20.30
8533;BMP280;4304;53.876;10.662;2023-07-13T05:28:17;101206.50;;;19.78
8533;BMP280;4304;53.876;10.662;2023-07-13T05:30:49;101208.03;;;19.80
8533;BMP280;4304;53.876;10.662;2023-07-13T05:33:15;101213.84;;;20.18
8533;BMP280;4304;53.876;10.662;2023-07-13T05:35:40;101203.41;;;19.92
8533;BMP280;4304;53.876;10.662;2023-07-13T05:38:06;101212.97;;;20.10
8533;BMP280;4304;53.876;10.662;2023-07-13T05:40:31;101205.59;;;20.39
8533;BMP280;4304;53.876;10.662;2023-07-13T05:42:57;101224.44;;;20.86
8533;BMP280;4304;53.876;10.662;2023-07-13T05:45:22;101217.50;;;20.85
8533;BMP280;4304;53.876;10.662;2023-07-13T05:47:47;101227.19;;;21.02
8533;BMP280;4304;53.876;10.662;2023-07-13T05:50:13;101226.16;;;21.28
8533;BMP280;4304;53.876;10.662;2023-07-13T05:52:38;101227.00;;;21.37
8533;BMP280;4304;53.876;10.662;2023-07-13T05:55:04;101233.84;;;21.47
8533;BMP280;4304;53.876;10.662;2023-07-13T05:57:30;101256.56;;;21.65
8533;BMP280;4304;53.876;10.662;2023-07-13T05:59:55;101231.25;;;21.63
8533;BMP280;4304;53.876;10.662;2023-07-13T06:02:21;101227.50;;;21.81
8533;BMP280;4304;53.876;10.662;2023-07-13T06:04:46;101233.53;;;22.30
8533;BMP280;4304;53.876;10.662;2023-07-13T06:07:11;101248.09;;;22.50
8533;BMP280;4304;53.876;10.662;2023-07-13T06:09:37;101232.16;;;22.82
8533;BMP280;4304;53.876;10.662;2023-07-13T06:12:03;101228.38;;;22.45
8533;BMP280;4304;53.876;10.662;2023-07-13T06:14:29;101226.56;;;22.53
8533;BMP280;4304;53.876;10.662;2023-07-13T06:16:54;101226.56;;;22.69
8533;BMP280;4304;53.876;10.662;2023-07-13T06:19:19;101248.34;;;23.11
8533;BMP280;4304;53.876;10.662;2023-07-13T06:21:45;101243.38;;;23.08
8533;BMP280;4304;53.876;10.662;2023-07-13T06:24:10;101214.81;;;22.40
8533;BMP280;4304;53.876;10.662;2023-07-13T06:26:36;101244.44;;;22.59
8533;BMP280;4304;53.876;10.662;2023-07-13T06:29:01;101213.97;;;22.55
8533;BMP280;4304;53.876;10.662;2023-07-13T06:31:27;101225.56;;;22.62
8533;BMP280;4304;53.876;10.662;2023-07-13T06:33:52;101251.88;;;23.41
8533;BMP280;4304;53.876;10.662;2023-07-13T06:36:18;101239.75;;;23.47
8533;BMP280;4304;53.876;10.662;2023-07-13T06:38:43;101222.13;;;23.61
8533;BMP280;4304;53.876;10.662;2023-07-13T06:41:08;101239.59;;;23.40
8533;BMP280;4304;53.876;10.662;2023-07-13T06:43:34;101233.16;;;22.73
8533;BMP280;4304;53.876;10.662;2023-07-13T06:45:59;101224.03;;;22.04
8533;BMP280;4304;53.876;10.662;2023-07-13T06:48:26;101237.56;;;21.78
8533;BMP280;4304;53.876;10.662;2023-07-13T06:50:51;101224.44;;;21.44
8533;BMP280;4304;53.876;10.662;2023-07-13T06:53:19;101230.03;;;21.08
8533;BMP280;4304;53.876;10.662;2023-07-13T06:55:45;101241.47;;;21.17
8533;BMP280;4304;53.876;10.662;2023-07-13T06:58:11;101231.72;;;21.17
8533;BMP280;4304;53.876;10.662;2023-07-13T07:00:39;101244.00;;;21.26
8533;BMP280;4304;53.876;10.662;2023-07-13T07:03:05;101245.34;;;21.38
8533;BMP280;4304;53.876;10.662;2023-07-13T07:05:30;101241.22;;;21.02
8533;BMP280;4304;53.876;10.662;2023-07-13T07:07:56;101240.91;;;21.05
8533;BMP280;4304;53.876;10.662;2023-07-13T07:10:21;101241.34;;;21.26
8533;BMP280;4304;53.876;10.662;2023-07-13T07:12:47;101247.22;;;21.45
8533;BMP280;4304;53.876;10.662;2023-07-13T07:15:12;101243.47;;;21.56
8533;BMP280;4304;53.876;10.662;2023-07-13T07:17:38;101242.00;;;21.61
8533;BMP280;4304;53.876;10.662;2023-07-13T07:20:04;101251.66;;;21.86
8533;BMP280;4304;53.876;10.662;2023-07-13T07:22:30;101242.66;;;21.63
8533;BMP280;4304;53.876;10.662;2023-07-13T07:24:56;101241.50;;;21.58
8533;BMP280;4304;53.876;10.662;2023-07-13T07:27:22;101242.88;;;21.78
8533;BMP280;4304;53.876;10.662;2023-07-13T07:29:47;101256.31;;;22.08
8533;BMP280;4304;53.876;10.662;2023-07-13T07:32:13;101244.63;;;22.58
8533;BMP280;4304;53.876;10.662;2023-07-13T07:34:38;101253.88;;;22.70
8533;BMP280;4304;53.876;10.662;2023-07-13T07:37:04;101263.97;;;22.66
8533;BMP280;4304;53.876;10.662;2023-07-13T07:39:29;101239.47;;;22.48
8533;BMP280;4304;53.876;10.662;2023-07-13T07:41:55;101246.09;;;22.60
8533;BMP280;4304;53.876;10.662;2023-07-13T07:44:20;101242.94;;;22.73
8533;BMP280;4304;53.876;10.662;2023-07-13T07:46:45;101261.00;;;22.69
8533;BMP280;4304;53.876;10.662;2023-07-13T07:49:11;101255.88;;;22.52
8533;BMP280;4304;53.876;10.662;2023-07-13T07:51:37;101251.69;;;22.89
8533;BMP280;4304;53.876;10.662;2023-07-13T07:54:04;101245.25;;;22.83
8533;BMP280;4304;53.876;10.662;2023-07-13T07:56:29;101251.06;;;22.71
8533;BMP280;4304;53.876;10.662;2023-07-13T07:58:55;101258.34;;;22.77
8533;BMP280;4304;53.876;10.662;2023-07-13T08:01:20;101249.88;;;22.97
8533;BMP280;4304;53.876;10.662;2023-07-13T08:03:46;101259.50;;;22.74
8533;BMP280;4304;53.876;10.662;2023-07-13T08:06:11;101259.31;;;22.76
8533;BMP280;4304;53.876;10.662;2023-07-13T08:08:37;101251.69;;;22.81
8533;BMP280;4304;53.876;10.662;2023-07-13T08:11:05;101255.38;;;22.72
8533;BMP280;4304;53.876;10.662;2023-07-13T08:13:30;101250.56;;;22.60
8533;BMP280;4304;53.876;10.662;2023-07-13T08:15:56;101258.34;;;22.85
8533;BMP280;4304;53.876;10.662;2023-07-13T08:18:21;101281.69;;;22.97
8533;BMP280;4304;53.876;10.662;2023-07-13T08:20:46;101255.66;;;23.47
8533;BMP280;4304;53.876;10.662;2023-07-13T08:23:12;101278.75;;;24.06
8533;BMP280;4304;53.876;10.662;2023-07-13T08:25:37;101278.25;;;23.81
8533;BMP280;4304;53.876;10.662;2023-07-13T08:28:03;101267.41;;;24.12
8533;BMP280;4304;53.876;10.662;2023-07-13T08:30:29;101284.38;;;24.34
8533;BMP280;4304;53.876;10.662;2023-07-13T08:32:54;101290.28;;;24.66
8533;BMP280;4304;53.876;10.662;2023-07-13T08:35:19;101272.50;;;25.03
8533;BMP280;4304;53.876;10.662;2023-07-13T08:37:45;101324.06;;;24.94
8533;BMP280;4304;53.876;10.662;2023-07-13T08:40:11;101292.22;;;24.72
8533;BMP280;4304;53.876;10.662;2023-07-13T08:42:46;101295.63;;;24.94
8533;BMP280;4304;53.876;10.662;2023-07-13T08:45:43;101293.88;;;25.09
8533;BMP280;4304;53.876;10.662;2023-07-13T08:48:15;101293.63;;;24.82
8533;BMP280;4304;53.876;10.662;2023-07-13T08:50:54;101288.22;;;24.90
8533;BMP280;4304;53.876;10.662;2023-07-13T08:53:24;101293.78;;;25.03
8533;BMP280;4304;53.876;10.662;2023-07-13T08:55:57;101313.97;;;25.26
8533;BMP280;4304;53.876;10.662;2023-07-13T08:58:23;101302.13;;;25.43
8533;BMP280;4304;53.876;10.662;2023-07-13T09:01:03;101281.41;;;25.10
8533;BMP280;4304;53.876;10.662;2023-07-13T09:03:37;101276.91;;;25.25
8533;BMP280;4304;53.876;10.662;2023-07-13T09:06:06;101288.38;;;25.54
8533;BMP280;4304;53.876;10.662;2023-07-13T09:08:46;101270.38;;;25.56
8533;BMP280;4304;53.876;10.662;2023-07-13T09:14:22;101285.25;;;25.50
8533;BMP280;4304;53.876;10.662;2023-07-13T09:16:50;101294.91;;;25.23
8533;BMP280;4304;53.876;10.662;2023-07-13T09:19:23;101269.94;;;24.36
8533;BMP280;4304;53.876;10.662;2023-07-13T09:21:52;101275.16;;;24.00
8533;BMP280;4304;53.876;10.662;2023-07-13T09:26:54;101274.72;;;24.41
8533;BMP280;4304;53.876;10.662;2023-07-13T09:29:28;101254.66;;;24.89
8533;BMP280;4304;53.876;10.662;2023-07-13T09:31:57;101321.75;;;25.13
8533;BMP280;4304;53.876;10.662;2023-07-13T09:34:24;101285.72;;;24.96
8533;BMP280;4304;53.876;10.662;2023-07-13T09:36:49;101276.28;;;24.72
8533;BMP280;4304;53.876;10.662;2023-07-13T09:39:41;101264.13;;;24.55
8533;BMP280;4304;53.876;10.662;2023-07-13T09:44:38;101256.00;;;24.71
8533;BMP280;4304;53.876;10.662;2023-07-13T09:47:16;101275.09;;;24.38
8533;BMP280;4304;53.876;10.662;2023-07-13T09:49:41;101243.00;;;24.17
8533;BMP280;4304;53.876;10.662;2023-07-13T09:52:12;101240.00;;;24.79
8533;BMP280;4304;53.876;10.662;2023-07-13T09:54:39;101252.31;;;25.08
8533;BMP280;4304;53.876;10.662;2023-07-13T09:57:18;101274.88;;;25.27
8533;BMP280;4304;53.876;10.662;2023-07-13T09:59:48;101299.09;;;25.17
8533;BMP280;4304;53.876;10.662;2023-07-13T10:02:40;101275.44;;;24.71
8533;BMP280;4304;53.876;10.662;2023-07-13T10:05:11;101263.53;;;24.45
8533;BMP280;4304;53.876;10.662;2023-07-13T10:07:40;101293.81;;;24.81
8533;BMP280;4304;53.876;10.662;2023-07-13T10:10:17;101294.84;;;24.35
8533;BMP280;4304;53.876;10.662;2023-07-13T10:12:43;101238.72;;;23.56
8533;BMP280;4304;53.876;10.662;2023-07-13T10:15:21;101256.31;;;23.03
8533;BMP280;4304;53.876;10.662;2023-07-13T10:17:48;101236.44;;;22.83
8533;BMP280;4304;53.876;10.662;2023-07-13T10:20:14;101231.59;;;23.86
8533;BMP280;4304;53.876;10.662;2023-07-13T10:23:02;101265.97;;;24.54
8533;BMP280;4304;53.876;10.662;2023-07-13T10:25:31;101287.34;;;24.97
8533;BMP280;4304;53.876;10.662;2023-07-13T10:28:03;101287.19;;;25.13
8533;BMP280;4304;53.876;10.662;2023-07-13T10:30:34;101294.16;;;25.43
8533;BMP280;4304;53.876;10.662;2023-07-13T10:33:02;101271.16;;;24.85
8533;BMP280;4304;53.876;10.662;2023-07-13T10:35:30;101283.13;;;24.66
8533;BMP280;4304;53.876;10.662;2023-07-13T10:38:25;101308.91;;;25.02
8533;BMP280;4304;53.876;10.662;2023-07-13T10:41:03;101252.78;;;25.40
8533;BMP280;4304;53.876;10.662;2023-07-13T10:43:35;101252.88;;;25.33
8533;BMP280;4304;53.876;10.662;2023-07-13T10:46:06;101285.97;;;25.44
8533;BMP280;4304;53.876;10.662;2023-07-13T10:48:33;101301.03;;;25.23
8533;BMP280;4304;53.876;10.662;2023-07-13T10:51:00;101300.84;;;25.10
8533;BMP280;4304;53.876;10.662;2023-07-13T10:53:31;101331.41;;;25.57
8533;BMP280;4304;53.876;10.662;2023-07-13T10:56:10;101318.69;;;25.67
8533;BMP280;4304;53.876;10.662;2023-07-13T10:58:42;101322.16;;;25.39
8533;BMP280;4304;53.876;10.662;2023-07-13T11:01:15;101291.78;;;25.62
8533;BMP280;4304;53.876;10.662;2023-07-13T11:06:18;101342.38;;;26.12
8533;BMP280;4304;53.876;10.662;2023-07-13T11:08:59;101365.00;;;26.71
8533;BMP280;4304;53.876;10.662;2023-07-13T11:11:34;101345.59;;;26.07
8533;BMP280;4304;53.876;10.662;2023-07-13T11:14:02;101328.22;;;25.47
8533;BMP280;4304;53.876;10.662;2023-07-13T11:16:41;101316.91;;;24.80
8533;BMP280;4304;53.876;10.662;2023-07-13T11:19:24;101438.06;;;23.60
8533;BMP280;4304;53.876;10.662;2023-07-13T11:22:11;101435.28;;;22.91
8533;BMP280;4304;53.876;10.662;2023-07-13T11:25:01;101389.44;;;22.26
8533;BMP280;4304;53.876;10.662;2023-07-13T11:30:31;101291.44;;;21.28
8533;BMP280;4304;53.876;10.662;2023-07-13T11:36:29;101288.06;;;20.93
8533;BMP280;4304;53.876;10.662;2023-07-13T11:39:04;101253.94;;;20.74
8533;BMP280;4304;53.876;10.662;2023-07-13T11:41:34;101259.50;;;20.96
8533;BMP280;4304;53.876;10.662;2023-07-13T11:44:12;101272.72;;;21.21
8533;BMP280;4304;53.876;10.662;2023-07-13T11:46:37;101271.91;;;21.29
8533;BMP280;4304;53.876;10.662;2023-07-13T11:49:05;101282.94;;;21.16
8533;BMP280;4304;53.876;10.662;2023-07-13T11:51:34;101281.31;;;21.23
8533;BMP280;4304;53.876;10.662;2023-07-13T11:54:05;101291.59;;;21.34
8533;BMP280;4304;53.876;10.662;2023-07-13T11:56:32;101291.56;;;21.26
8533;BMP280;4304;53.876;10.662;2023-07-13T11:59:04;101305.50;;;21.11
8533;BMP280;4304;53.876;10.662;2023-07-13T12:01:32;101302.88;;;21.11
8533;BMP280;4304;53.876;10.662;2023-07-13T12:04:02;101321.72;;;21.16
8533;BMP280;4304;53.876;10.662;2023-07-13T12:06:33;101312.34;;;20.96
8533;BMP280;4304;53.876;10.662;2023-07-13T12:09:08;101315.84;;;21.22
8533;BMP280;4304;53.876;10.662;2023-07-13T12:11:38;101322.34;;;22.01
8533;BMP280;4304;53.876;10.662;2023-07-13T12:14:04;101352.41;;;22.57
8533;BMP280;4304;53.876;10.662;2023-07-13T12:16:32;101380.25;;;22.93
8533;BMP280;4304;53.876;10.662;2023-07-13T12:18:59;101344.31;;;23.60
8533;BMP280;4304;53.876;10.662;2023-07-13T12:21:33;101385.97;;;23.67
8533;BMP280;4304;53.876;10.662;2023-07-13T12:24:00;101369.22;;;23.59
8533;BMP280;4304;53.876;10.662;2023-07-13T12:26:28;101349.72;;;23.36
8533;BMP280;4304;53.876;10.662;2023-07-13T12:28:54;101360.41;;;23.05
8533;BMP280;4304;53.876;10.662;2023-07-13T12:34:09;101303.41;;;22.37
8533;BMP280;4304;53.876;10.662;2023-07-13T12:36:38;101328.78;;;22.07
8533;BMP280;4304;53.876;10.662;2023-07-13T12:39:13;101330.59;;;21.98
8533;BMP280;4304;53.876;10.662;2023-07-13T12:41:39;101334.38;;;21.96
8533;BMP280;4304;53.876;10.662;2023-07-13T12:44:10;101341.47;;;21.87
8533;BMP280;4304;53.876;10.662;2023-07-13T12:46:37;101329.72;;;21.82
8533;BMP280;4304;53.876;10.662;2023-07-13T12:49:06;101333.25;;;21.98
8533;BMP280;4304;53.876;10.662;2023-07-13T12:51:32;101336.53;;;22.00
8533;BMP280;4304;53.876;10.662;2023-07-13T12:54:18;101350.91;;;21.90
8533;BMP280;4304;53.876;10.662;2023-07-13T12:56:45;101362.56;;;21.72
8533;BMP280;4304;53.876;10.662;2023-07-13T12:59:18;101331.47;;;21.41
8533;BMP280;4304;53.876;10.662;2023-07-13T13:01:44;101352.88;;;21.04
8533;BMP280;4304;53.876;10.662;2023-07-13T13:04:09;101353.63;;;20.72
8533;BMP280;4304;53.876;10.662;2023-07-13T13:06:36;101356.53;;;20.17
8533;BMP280;4304;53.876;10.662;2023-07-13T13:09:03;101355.56;;;19.91
8533;BMP280;4304;53.876;10.662;2023-07-13T13:11:31;101357.84;;;19.77
8533;BMP280;4304;53.876;10.662;2023-07-13T13:13:57;101363.75;;;19.52
8533;BMP280;4304;53.876;10.662;2023-07-13T13:18:55;101379.88;;;19.04
8533;BMP280;4304;53.876;10.662;2023-07-13T13:21:23;101393.16;;;18.93
8533;BMP280;4304;53.876;10.662;2023-07-13T13:23:49;101400.09;;;18.56
8533;BMP280;4304;53.876;10.662;2023-07-13T13:26:16;101403.63;;;18.27
8533;BMP280;4304;53.876;10.662;2023-07-13T13:28:43;101401.13;;;18.26
8533;BMP280;4304;53.876;10.662;2023-07-13T13:31:09;101396.16;;;18.13
8533;BMP280;4304;53.876;10.662;2023-07-13T13:33:39;101395.81;;;18.07
8533;BMP280;4304;53.876;10.662;2023-07-13T13:36:20;101395.16;;;18.14
8533;BMP280;4304;53.876;10.662;2023-07-13T13:38:47;101403.75;;;18.16
8533;BMP280;4304;53.876;10.662;2023-07-13T13:41:13;101398.38;;;18.27
8533;BMP280;4304;53.876;10.662;2023-07-13T13:43:40;101398.00;;;18.41
8533;BMP280;4304;53.876;10.662;2023-07-13T13:46:17;101401.88;;;18.75
8533;BMP280;4304;53.876;10.662;2023-07-13T13:48:44;101395.22;;;18.89
8533;BMP280;4304;53.876;10.662;2023-07-13T13:51:18;101404.53;;;19.03
8533;BMP280;4304;53.876;10.662;2023-07-13T13:53:45;101405.06;;;18.97
8533;BMP280;4304;53.876;10.662;2023-07-13T13:56:11;101419.22;;;18.96
8533;BMP280;4304;53.876;10.662;2023-07-13T13:58:36;101415.75;;;19.24
8533;BMP280;4304;53.876;10.662;2023-07-13T14:01:02;101421.56;;;19.27
8533;BMP280;4304;53.876;10.662;2023-07-13T14:03:27;101424.75;;;19.30
8533;BMP280;4304;53.876;10.662;2023-07-13T14:05:54;101434.59;;;19.38
8533;BMP280;4304;53.876;10.662;2023-07-13T14:08:20;101440.16;;;19.26
8533;BMP280;4304;53.876;10.662;2023-07-13T14:10:47;101430.19;;;19.10
8533;BMP280;4304;53.876;10.662;2023-07-13T14:13:20;101437.94;;;19.21
8533;BMP280;4304;53.876;10.662;2023-07-13T14:15:46;101436.81;;;19.05
8533;BMP280;4304;53.876;10.662;2023-07-13T14:18:13;101435.19;;;19.04
8533;BMP280;4304;53.876;10.662;2023-07-13T14:20:43;101437.91;;;19.30
8533;BMP280;4304;53.876;10.662;2023-07-13T14:23:08;101434.50;;;19.66
8533;BMP280;4304;53.876;10.662;2023-07-13T14:25:33;101441.09;;;19.98
8533;BMP280;4304;53.876;10.662;2023-07-13T14:27:59;101431.34;;;20.25
8533;BMP280;4304;53.876;10.662;2023-07-13T14:30:26;101434.66;;;20.27
8533;BMP280;4304;53.876;10.662;2023-07-13T14:32:51;101423.53;;;20.33
8533;BMP280;4304;53.876;10.662;2023-07-13T14:35:20;101423.31;;;20.44
8533;BMP280;4304;53.876;10.662;2023-07-13T14:37:48;101410.75;;;20.56
8533;BMP280;4304;53.876;10.662;2023-07-13T14:40:19;101416.34;;;20.70